Time,TemperatureF,DewpointF,PressureIn,WindDirection,WindDirectionDegrees,WindSpeedMPH,WindSpeedGustMPH,Humidity,HourlyPrecipIn,Conditions,Clouds,dailyrainin,SoftwareType,DateUTC
2013-04-26 00:02:00,45.9,39.0,30.17,West,280,0.0,0.0,77,0.00,,,0.00,meteohub,2013-04-26 07:02:00,
2013-04-26 00:07:00,45.7,38.8,30.17,West,280,0.0,0.0,77,0.00,,,0.00,meteohub,2013-04-26 07:07:00,
2013-04-26 00:12:00,45.3,38.5,30.18,West,280,0.0,0.0,77,0.00,,,0.00,meteohub,2013-04-26 07:12:00,
2013-04-26 00:17:00,45.1,38.3,30.18,West,280,0.0,0.0,77,0.00,,,0.00,meteohub,2013-04-26 07:17:00,
2013-04-26 00:22:00,45.0,38.1,30.17,West,280,0.0,0.0,77,0.00,,,0.00,meteohub,2013-04-26 07:22:00,
2013-04-26 00:27:00,44.8,37.9,30.18,West,280,0.0,0.0,77,0.00,,,0.00,meteohub,2013-04-26 07:27:00,
2013-04-26 00:32:00,44.6,37.6,30.17,West,280,0.0,0.0,76,0.00,,,0.00,meteohub,2013-04-26 07:32:00,
2013-04-26 00:37:00,44.4,37.4,30.18,West,280,0.0,0.0,76,0.00,,,0.00,meteohub,2013-04-26 07:37:00,
2013-04-26 00:42:00,44.2,37.2,30.18,West,280,0.0,0.0,76,0.00,,,0.00,meteohub,2013-04-26 07:42:00,
2013-04-26 00:47:00,44.2,37.2,30.17,West,280,0.0,0.0,76,0.00,,,0.00,meteohub,2013-04-26 07:47:00,
2013-04-26 00:52:00,44.1,36.7,30.17,West,280,0.0,0.0,75,0.00,,,0.00,meteohub,2013-04-26 07:52:00,
2013-04-26 00:57:00,43.9,36.5,30.17,West,280,0.0,0.0,75,0.00,,,0.00,meteohub,2013-04-26 07:57:00,
2013-04-26 01:02:00,43.9,36.5,30.17,West,280,0.0,0.0,75,0.00,,,0.00,meteohub,2013-04-26 08:02:00,
2013-04-26 01:07:00,43.7,36.3,30.17,West,280,0.0,0.0,75,0.00,,,0.00,meteohub,2013-04-26 08:07:00,
2013-04-26 01:12:00,43.5,36.1,30.17,West,280,0.0,0.0,75,0.00,,,0.00,meteohub,2013-04-26 08:12:00,
2013-04-26 01:17:00,43.3,36.0,30.17,West,280,0.0,0.0,75,0.00,,,0.00,meteohub,2013-04-26 08:17:00,
2013-04-26 01:22:00,43.3,36.0,30.17,West,280,0.0,0.0,75,0.00,,,0.00,meteohub,2013-04-26 08:22:00,
2013-04-26 01:27:00,43.2,35.8,30.18,West,280,0.0,0.0,75,0.00,,,0.00,meteohub,2013-04-26 08:27:00,
2013-04-26 01:32:00,43.0,35.6,30.18,West,280,0.0,0.0,75,0.00,,,0.00,meteohub,2013-04-26 08:32:00,
2013-04-26 01:37:00,42.8,35.4,30.19,West,280,0.0,0.0,75,0.00,,,0.00,meteohub,2013-04-26 08:37:00,
2013-04-26 01:42:00,42.6,35.2,30.19,West,280,0.0,0.0,75,0.00,,,0.00,meteohub,2013-04-26 08:42:00,
2013-04-26 01:47:00,42.4,35.1,30.19,West,280,0.0,0.0,75,0.00,,,0.00,meteohub,2013-04-26 08:47:00,
2013-04-26 01:52:00,42.4,35.1,30.19,West,280,0.0,0.0,75,0.00,,,0.00,meteohub,2013-04-26 08:52:00,
2013-04-26 01:57:00,42.3,34.9,30.19,West,280,0.0,0.0,75,0.00,,,0.00,meteohub,2013-04-26 08:57:00,
2013-04-26 02:02:00,42.3,34.5,30.19,West,280,0.0,0.0,74,0.00,,,0.00,meteohub,2013-04-26 09:02:00,
2013-04-26 02:07:00,42.3,34.5,30.20,West,280,0.0,0.0,74,0.00,,,0.00,meteohub,2013-04-26 09:07:00,
2013-04-26 02:12:00,42.1,34.3,30.20,West,280,0.0,0.0,74,0.00,,,0.00,meteohub,2013-04-26 09:12:00,
2013-04-26 02:17:00,41.9,34.2,30.20,West,280,0.0,0.0,74,0.00,,,0.00,meteohub,2013-04-26 09:17:00,
2013-04-26 02:22:00,41.7,34.0,30.20,West,280,0.0,0.0,74,0.00,,,0.00,meteohub,2013-04-26 09:22:00,
2013-04-26 02:27:00,41.7,34.0,30.20,West,280,0.0,0.0,74,0.00,,,0.00,meteohub,2013-04-26 09:27:00,
2013-04-26 02:32:00,41.5,33.8,30.20,West,280,0.0,0.0,74,0.00,,,0.00,meteohub,2013-04-26 09:32:00,
2013-04-26 02:37:00,41.5,33.8,30.20,West,280,0.0,0.0,74,0.00,,,0.00,meteohub,2013-04-26 09:37:00,
2013-04-26 02:42:00,41.4,33.6,30.20,West,280,0.0,0.0,74,0.00,,,0.00,meteohub,2013-04-26 09:42:00,
2013-04-26 02:47:00,41.4,33.4,30.20,West,280,0.0,0.0,73,0.00,,,0.00,meteohub,2013-04-26 09:47:00,
2013-04-26 02:52:00,41.4,33.4,30.20,West,280,0.0,0.0,73,0.00,,,0.00,meteohub,2013-04-26 09:52:00,
2013-04-26 02:57:00,41.4,33.4,30.20,West,280,0.0,0.0,73,0.00,,,0.00,meteohub,2013-04-26 09:57:00,
2013-04-26 03:02:00,41.2,33.4,30.20,West,280,0.0,0.0,74,0.00,,,0.00,meteohub,2013-04-26 10:02:00,
2013-04-26 03:07:00,41.0,33.4,30.20,West,280,0.0,0.0,74,0.00,,,0.00,meteohub,2013-04-26 10:07:00,
2013-04-26 03:12:00,40.8,33.3,30.20,West,280,0.0,0.0,74,0.00,,,0.00,meteohub,2013-04-26 10:12:00,
2013-04-26 03:17:00,40.8,33.3,30.20,West,280,0.0,0.0,74,0.00,,,0.00,meteohub,2013-04-26 10:17:00,
2013-04-26 03:22:00,40.6,33.1,30.20,West,280,0.0,0.0,74,0.00,,,0.00,meteohub,2013-04-26 10:22:00,
2013-04-26 03:27:00,40.6,32.7,30.20,West,280,0.0,0.0,73,0.00,,,0.00,meteohub,2013-04-26 10:27:00,
2013-04-26 03:32:00,40.6,32.7,30.20,West,280,0.0,0.0,73,0.00,,,0.00,meteohub,2013-04-26 10:32:00,
2013-04-26 03:37:00,40.6,32.7,30.21,West,280,0.0,0.0,73,0.00,,,0.00,meteohub,2013-04-26 10:37:00,
2013-04-26 03:42:00,40.5,32.5,30.20,West,280,0.0,0.0,73,0.00,,,0.00,meteohub,2013-04-26 10:42:00,
2013-04-26 03:47:00,40.3,32.7,30.20,West,280,0.0,0.0,74,0.00,,,0.00,meteohub,2013-04-26 10:47:00,
2013-04-26 03:52:00,40.3,32.7,30.20,West,280,0.0,0.0,74,0.00,,,0.00,meteohub,2013-04-26 10:52:00,
2013-04-26 03:57:00,39.9,32.4,30.20,West,280,0.0,0.0,74,0.00,,,0.00,meteohub,2013-04-26 10:57:00,
2013-04-26 04:02:00,39.7,32.2,30.21,West,280,0.0,0.0,74,0.00,,,0.00,meteohub,2013-04-26 11:02:00,
2013-04-26 04:07:00,39.6,32.0,30.21,West,280,0.0,0.0,74,0.00,,,0.00,meteohub,2013-04-26 11:07:00,
2013-04-26 04:12:00,39.4,31.8,30.21,West,280,0.0,0.0,74,0.00,,,0.00,meteohub,2013-04-26 11:12:00,
2013-04-26 04:17:00,39.4,31.8,30.21,West,280,0.0,0.0,74,0.00,,,0.00,meteohub,2013-04-26 11:17:00,
2013-04-26 04:22:00,39.2,31.6,30.22,West,280,0.0,0.0,74,0.00,,,0.00,meteohub,2013-04-26 11:22:00,
2013-04-26 04:27:00,39.0,31.5,30.22,West,280,0.0,0.0,74,0.00,,,0.00,meteohub,2013-04-26 11:27:00,
2013-04-26 04:32:00,38.8,31.3,30.22,West,280,0.0,0.0,74,0.00,,,0.00,meteohub,2013-04-26 11:32:00,
2013-04-26 04:37:00,38.7,31.1,30.22,West,280,0.0,0.0,74,0.00,,,0.00,meteohub,2013-04-26 11:37:00,
2013-04-26 04:42:00,38.7,31.1,30.22,West,280,0.0,0.0,74,0.00,,,0.00,meteohub,2013-04-26 11:42:00,
2013-04-26 04:47:00,38.7,31.1,30.22,West,280,0.0,0.0,74,0.00,,,0.00,meteohub,2013-04-26 11:47:00,
2013-04-26 04:52:00,38.5,30.9,30.22,West,280,0.0,0.0,74,0.00,,,0.00,meteohub,2013-04-26 11:52:00,
2013-04-26 04:57:00,38.5,30.9,30.22,West,280,0.0,0.0,74,0.00,,,0.00,meteohub,2013-04-26 11:57:00,
2013-04-26 05:02:00,38.3,30.7,30.22,West,280,0.0,0.0,74,0.00,,,0.00,meteohub,2013-04-26 12:02:00,
2013-04-26 05:07:00,38.1,30.6,30.22,West,280,0.0,0.0,74,0.00,,,0.00,meteohub,2013-04-26 12:07:00,
2013-04-26 05:12:00,37.9,30.4,30.22,West,280,0.0,0.0,74,0.00,,,0.00,meteohub,2013-04-26 12:12:00,
2013-04-26 05:17:00,37.9,30.4,30.22,West,280,0.0,0.0,74,0.00,,,0.00,meteohub,2013-04-26 12:17:00,
2013-04-26 05:22:00,37.8,30.2,30.22,West,280,0.0,0.0,74,0.00,,,0.00,meteohub,2013-04-26 12:22:00,
2013-04-26 05:27:00,37.6,30.0,30.22,West,280,0.0,0.0,74,0.00,,,0.00,meteohub,2013-04-26 12:27:00,
2013-04-26 05:32:00,37.6,30.0,30.22,West,280,0.0,0.0,74,0.00,,,0.00,meteohub,2013-04-26 12:32:00,
2013-04-26 05:37:00,37.4,29.8,30.22,West,280,0.0,0.0,74,0.00,,,0.00,meteohub,2013-04-26 12:37:00,
2013-04-26 05:42:00,37.2,29.7,30.22,West,280,0.0,0.0,74,0.00,,,0.00,meteohub,2013-04-26 12:42:00,
2013-04-26 05:47:00,37.0,29.5,30.22,West,280,0.0,0.0,74,0.00,,,0.00,meteohub,2013-04-26 12:47:00,
2013-04-26 05:52:00,37.0,29.5,30.22,West,280,0.0,0.0,74,0.00,,,0.00,meteohub,2013-04-26 12:52:00,
2013-04-26 05:57:00,36.9,29.3,30.22,West,280,0.0,0.0,74,0.00,,,0.00,meteohub,2013-04-26 12:57:00,
2013-04-26 06:02:00,36.9,29.3,30.22,West,280,0.0,0.0,74,0.00,,,0.00,meteohub,2013-04-26 13:02:00,
2013-04-26 06:07:00,36.9,29.3,30.21,West,280,0.0,0.0,74,0.00,,,0.00,meteohub,2013-04-26 13:07:00,
2013-04-26 06:12:00,36.9,29.3,30.21,West,280,0.0,0.0,74,0.00,,,0.00,meteohub,2013-04-26 13:12:00,
2013-04-26 06:17:00,36.7,29.1,30.22,West,280,0.0,0.0,74,0.00,,,0.00,meteohub,2013-04-26 13:17:00,
2013-04-26 06:22:00,36.7,29.1,30.22,West,280,0.0,0.0,74,0.00,,,0.00,meteohub,2013-04-26 13:22:00,
2013-04-26 06:27:00,36.3,28.8,30.22,West,280,0.0,0.0,74,0.00,,,0.00,meteohub,2013-04-26 13:27:00,
2013-04-26 06:32:00,36.3,28.8,30.22,West,280,0.0,0.0,74,0.00,,,0.00,meteohub,2013-04-26 13:32:00,
2013-04-26 06:37:00,36.3,28.8,30.22,West,280,0.0,0.0,74,0.00,,,0.00,meteohub,2013-04-26 13:37:00,
2013-04-26 06:42:00,36.3,28.8,30.23,West,280,0.0,0.0,74,0.00,,,0.00,meteohub,2013-04-26 13:42:00,
2013-04-26 06:47:00,36.3,28.8,30.23,West,280,0.0,0.0,74,0.00,,,0.00,meteohub,2013-04-26 13:47:00,
2013-04-26 06:52:00,36.5,28.8,30.24,West,280,0.0,0.0,73,0.00,,,0.00,meteohub,2013-04-26 13:52:00,
2013-04-26 06:57:00,36.7,28.8,30.24,West,280,0.0,0.0,73,0.00,,,0.00,meteohub,2013-04-26 13:57:00,
2013-04-26 07:02:00,37.2,29.3,30.25,West,280,0.0,0.0,73,0.00,,,0.00,meteohub,2013-04-26 14:02:00,
2013-04-26 07:07:00,37.9,29.7,30.25,West,280,0.0,0.0,72,0.00,,,0.00,meteohub,2013-04-26 14:07:00,
2013-04-26 07:12:00,38.5,30.2,30.25,West,280,0.0,0.0,72,0.00,,,0.00,meteohub,2013-04-26 14:12:00,
2013-04-26 07:17:00,39.0,30.7,30.25,West,280,0.0,0.0,72,0.00,,,0.00,meteohub,2013-04-26 14:17:00,
2013-04-26 07:22:00,39.7,31.5,30.25,West,280,0.0,0.0,72,0.00,,,0.00,meteohub,2013-04-26 14:22:00,
2013-04-26 07:27:00,40.5,31.8,30.25,SSW,194,0.0,0.0,71,0.00,,,0.00,meteohub,2013-04-26 14:27:00,
2013-04-26 07:32:00,40.8,32.2,30.25,South,189,0.0,0.0,71,0.00,,,0.00,meteohub,2013-04-26 14:32:00,
2013-04-26 07:37:00,41.2,32.5,30.25,South,189,0.0,2.0,71,0.00,,,0.00,meteohub,2013-04-26 14:37:00,
2013-04-26 07:42:00,41.7,33.1,30.25,South,189,0.0,2.0,71,0.00,,,0.00,meteohub,2013-04-26 14:42:00,
2013-04-26 07:47:00,42.1,33.4,30.26,South,189,0.0,0.0,71,0.00,,,0.00,meteohub,2013-04-26 14:47:00,
2013-04-26 07:52:00,42.6,33.8,30.25,SE,136,1.0,0.0,71,0.00,,,0.00,meteohub,2013-04-26 14:52:00,
2013-04-26 07:57:00,43.3,34.2,30.25,SE,135,0.0,1.0,70,0.00,,,0.00,meteohub,2013-04-26 14:57:00,
2013-04-26 08:02:00,43.9,34.7,30.25,SE,135,0.0,1.0,70,0.00,,,0.00,meteohub,2013-04-26 15:02:00,
2013-04-26 08:07:00,44.2,35.1,30.25,NE,48,0.0,4.0,70,0.00,,,0.00,meteohub,2013-04-26 15:07:00,
2013-04-26 08:12:00,44.8,35.6,30.25,NW,315,0.0,3.0,70,0.00,,,0.00,meteohub,2013-04-26 15:12:00,
2013-04-26 08:17:00,45.0,35.8,30.25,West,261,0.0,4.0,70,0.00,,,0.00,meteohub,2013-04-26 15:17:00,
2013-04-26 08:22:00,45.5,36.3,30.25,West,267,0.0,6.0,70,0.00,,,0.00,meteohub,2013-04-26 15:22:00,
2013-04-26 08:27:00,45.9,36.7,30.25,West,268,0.0,6.0,70,0.00,,,0.00,meteohub,2013-04-26 15:27:00,
2013-04-26 08:32:00,46.0,36.9,30.25,West,268,0.0,6.0,70,0.00,,,0.00,meteohub,2013-04-26 15:32:00,
2013-04-26 08:37:00,46.2,36.7,30.25,West,271,0.0,5.0,69,0.00,,,0.00,meteohub,2013-04-26 15:37:00,
2013-04-26 08:42:00,46.6,37.0,30.25,West,268,0.0,4.0,69,0.00,,,0.00,meteohub,2013-04-26 15:42:00,
2013-04-26 08:47:00,46.8,37.2,30.25,WSW,252,0.0,4.0,69,0.00,,,0.00,meteohub,2013-04-26 15:47:00,
2013-04-26 08:52:00,47.1,37.4,30.25,SW,221,0.0,3.0,69,0.00,,,0.00,meteohub,2013-04-26 15:52:00,
2013-04-26 08:57:00,47.7,38.3,30.25,West,259,0.0,3.0,70,0.00,,,0.00,meteohub,2013-04-26 15:57:00,
2013-04-26 09:02:00,48.6,39.6,30.25,West,274,0.0,4.0,71,0.00,,,0.00,meteohub,2013-04-26 16:02:00,
2013-04-26 09:07:00,49.5,42.3,30.25,WSW,242,0.0,4.0,76,0.00,,,0.00,meteohub,2013-04-26 16:07:00,
2013-04-26 09:12:00,50.5,44.2,30.25,WNW,301,0.0,4.0,79,0.00,,,0.00,meteohub,2013-04-26 16:12:00,
2013-04-26 09:17:00,51.6,45.7,30.25,NW,306,0.0,4.0,80,0.00,,,0.00,meteohub,2013-04-26 16:17:00,
2013-04-26 09:22:00,52.2,47.1,30.25,West,279,0.0,4.0,83,0.00,,,0.00,meteohub,2013-04-26 16:22:00,
2013-04-26 09:27:00,52.2,47.1,30.25,West,276,1.0,3.0,83,0.00,,,0.00,meteohub,2013-04-26 16:27:00,
2013-04-26 09:32:00,52.9,47.8,30.25,West,276,0.0,3.0,83,0.00,,,0.00,meteohub,2013-04-26 16:32:00,
2013-04-26 09:37:00,53.8,48.4,30.25,NNW,329,0.0,3.0,82,0.00,,,0.00,meteohub,2013-04-26 16:37:00,
2013-04-26 09:42:00,54.7,48.9,30.24,West,270,0.0,5.0,81,0.00,,,0.00,meteohub,2013-04-26 16:42:00,
2013-04-26 09:47:00,55.4,49.3,30.24,SW,217,5.0,5.0,80,0.00,,,0.00,meteohub,2013-04-26 16:47:00,
2013-04-26 09:52:00,55.2,49.5,30.23,West,274,2.0,5.0,81,0.00,,,0.00,meteohub,2013-04-26 16:52:00,
2013-04-26 09:57:00,56.1,49.6,30.23,West,274,2.0,5.0,79,0.00,,,0.00,meteohub,2013-04-26 16:57:00,
2013-04-26 10:02:00,57.0,50.5,30.24,WNW,290,0.0,5.0,79,0.00,,,0.00,meteohub,2013-04-26 17:02:00,
2013-04-26 10:07:00,56.7,49.5,30.24,West,269,0.0,5.0,77,0.00,,,0.00,meteohub,2013-04-26 17:07:00,
2013-04-26 10:12:00,56.7,49.5,30.24,NNE,24,4.0,4.0,77,0.00,,,0.00,meteohub,2013-04-26 17:12:00,
2013-04-26 10:17:00,57.4,50.2,30.24,West,277,3.0,7.0,77,0.00,,,0.00,meteohub,2013-04-26 17:17:00,
2013-04-26 10:22:00,57.9,50.0,30.25,West,275,5.0,7.0,75,0.00,,,0.00,meteohub,2013-04-26 17:22:00,
2013-04-26 10:27:00,58.3,50.7,30.25,WSW,258,3.0,7.0,76,0.00,,,0.00,meteohub,2013-04-26 17:27:00,
2013-04-26 10:32:00,58.5,49.8,30.25,SW,226,3.0,7.0,73,0.00,,,0.00,meteohub,2013-04-26 17:32:00,
2013-04-26 10:37:00,58.3,50.4,30.25,West,269,0.0,7.0,75,0.00,,,0.00,meteohub,2013-04-26 17:37:00,
2013-04-26 10:42:00,57.9,49.3,30.25,West,281,0.0,6.0,73,0.00,,,0.00,meteohub,2013-04-26 17:42:00,
2013-04-26 10:47:00,58.5,50.2,30.25,WNW,282,0.0,6.0,74,0.00,,,0.00,meteohub,2013-04-26 17:47:00,
2013-04-26 10:52:00,59.4,51.4,30.24,NW,325,2.0,6.0,75,0.00,,,0.00,meteohub,2013-04-26 17:52:00,
2013-04-26 10:57:00,60.3,51.3,30.24,WNW,288,1.0,6.0,72,0.00,,,0.00,meteohub,2013-04-26 17:57:00,
2013-04-26 11:02:00,61.2,50.9,30.24,WNW,292,0.0,3.0,69,0.00,,,0.00,meteohub,2013-04-26 18:02:00,
2013-04-26 11:07:00,61.9,52.0,30.24,WNW,292,0.0,3.0,70,0.00,,,0.00,meteohub,2013-04-26 18:07:00,
2013-04-26 11:12:00,62.4,50.9,30.24,NW,311,0.0,3.0,66,0.00,,,0.00,meteohub,2013-04-26 18:12:00,
2013-04-26 11:17:00,62.4,50.5,30.24,West,267,0.0,3.0,65,0.00,,,0.00,meteohub,2013-04-26 18:17:00,
2013-04-26 11:22:00,62.2,51.1,30.24,West,267,0.0,3.0,67,0.00,,,0.00,meteohub,2013-04-26 18:22:00,
2013-04-26 11:27:00,63.0,52.2,30.25,NW,306,5.0,8.0,68,0.00,,,0.00,meteohub,2013-04-26 18:27:00,
2013-04-26 11:32:00,63.7,52.2,30.25,NW,315,6.0,8.0,66,0.00,,,0.00,meteohub,2013-04-26 18:32:00,
2013-04-26 11:37:00,64.2,51.4,30.25,NW,315,4.0,8.0,63,0.00,,,0.00,meteohub,2013-04-26 18:37:00,
2013-04-26 11:42:00,64.9,51.1,30.25,NW,315,1.0,6.0,61,0.00,,,0.00,meteohub,2013-04-26 18:42:00,
2013-04-26 11:47:00,65.3,52.3,30.25,West,264,5.0,6.0,63,0.00,,,0.00,meteohub,2013-04-26 18:47:00,
2013-04-26 11:52:00,65.7,51.4,30.25,West,266,2.0,8.0,60,0.00,,,0.00,meteohub,2013-04-26 18:52:00,
2013-04-26 11:57:00,65.7,50.5,30.25,NW,304,1.0,8.0,58,0.00,,,0.00,meteohub,2013-04-26 18:57:00,
2013-04-26 12:02:00,66.4,52.5,30.25,West,276,4.0,8.0,61,0.00,,,0.00,meteohub,2013-04-26 19:02:00,
2013-04-26 12:07:00,66.6,50.9,30.25,NW,304,0.0,8.0,57,0.00,,,0.00,meteohub,2013-04-26 19:07:00,
2013-04-26 12:12:00,66.7,50.5,30.25,NNW,338,3.0,6.0,56,0.00,,,0.00,meteohub,2013-04-26 19:12:00,
2013-04-26 12:17:00,66.9,51.6,30.25,NNW,341,0.0,6.0,58,0.00,,,0.00,meteohub,2013-04-26 19:17:00,
2013-04-26 12:22:00,67.3,51.4,30.25,NW,307,0.0,6.0,57,0.00,,,0.00,meteohub,2013-04-26 19:22:00,
2013-04-26 12:27:00,66.6,49.8,30.25,ESE,113,1.0,10.0,55,0.00,,,0.00,meteohub,2013-04-26 19:27:00,
2013-04-26 12:32:00,66.0,49.5,30.25,West,271,3.0,10.0,55,0.00,,,0.00,meteohub,2013-04-26 19:32:00,
2013-04-26 12:37:00,66.6,50.4,30.25,WNW,286,0.0,8.0,56,0.00,,,0.00,meteohub,2013-04-26 19:37:00,
2013-04-26 12:42:00,66.4,51.1,30.25,West,277,0.0,8.0,58,0.00,,,0.00,meteohub,2013-04-26 19:42:00,
2013-04-26 12:47:00,66.6,48.4,30.25,West,267,0.0,9.0,52,0.00,,,0.00,meteohub,2013-04-26 19:47:00,
2013-04-26 12:52:00,66.4,49.3,30.25,West,267,2.0,9.0,54,0.00,,,0.00,meteohub,2013-04-26 19:52:00,
2013-04-26 12:57:00,65.8,48.7,30.25,WNW,283,0.0,9.0,54,0.00,,,0.00,meteohub,2013-04-26 19:57:00,
2013-04-26 13:02:00,66.0,49.8,30.25,NW,316,1.0,7.0,56,0.00,,,0.00,meteohub,2013-04-26 20:02:00,
2013-04-26 13:07:00,66.7,51.1,30.25,West,264,0.0,7.0,57,0.00,,,0.00,meteohub,2013-04-26 20:07:00,
2013-04-26 13:12:00,67.3,48.0,30.25,NNW,330,5.0,6.0,50,0.00,,,0.00,meteohub,2013-04-26 20:12:00,
2013-04-26 13:17:00,68.2,50.9,30.25,West,272,0.0,7.0,54,0.00,,,0.00,meteohub,2013-04-26 20:17:00,
2013-04-26 13:22:00,68.5,48.0,30.25,WSW,253,0.0,7.0,48,0.00,,,0.00,meteohub,2013-04-26 20:22:00,
2013-04-26 13:27:00,68.9,49.5,30.25,West,265,7.0,9.0,50,0.00,,,0.00,meteohub,2013-04-26 20:27:00,
2013-04-26 13:32:00,69.3,49.3,30.26,WNW,299,4.0,10.0,49,0.00,,,0.00,meteohub,2013-04-26 20:32:00,
2013-04-26 13:37:00,69.6,49.6,30.26,WSW,258,0.0,10.0,49,0.00,,,0.00,meteohub,2013-04-26 20:37:00,
2013-04-26 13:42:00,69.6,47.8,30.26,West,271,1.0,10.0,46,0.00,,,0.00,meteohub,2013-04-26 20:42:00,
2013-04-26 13:47:00,69.6,47.8,30.26,NW,319,0.0,8.0,46,0.00,,,0.00,meteohub,2013-04-26 20:47:00,
2013-04-26 13:52:00,70.0,48.2,30.26,NW,319,2.0,7.0,46,0.00,,,0.00,meteohub,2013-04-26 20:52:00,
2013-04-26 13:57:00,70.2,47.8,30.26,SW,229,0.0,7.0,45,0.00,,,0.00,meteohub,2013-04-26 20:57:00,
2013-04-26 14:02:00,70.7,46.4,30.26,NW,315,1.0,7.0,42,0.00,,,0.00,meteohub,2013-04-26 21:02:00,
2013-04-26 14:07:00,71.4,47.1,30.26,West,271,3.0,7.0,42,0.00,,,0.00,meteohub,2013-04-26 21:07:00,
2013-04-26 14:12:00,71.4,45.1,30.25,WNW,301,1.0,8.0,39,0.00,,,0.00,meteohub,2013-04-26 21:12:00,
2013-04-26 14:17:00,71.8,44.8,30.25,NW,321,0.0,8.0,38,0.00,,,0.00,meteohub,2013-04-26 21:17:00,
2013-04-26 14:22:00,72.0,45.0,30.25,West,280,0.0,8.0,38,0.00,,,0.00,meteohub,2013-04-26 21:22:00,
2013-04-26 14:27:00,72.1,45.1,30.25,NNW,329,0.0,6.0,38,0.00,,,0.00,meteohub,2013-04-26 21:27:00,
2013-04-26 14:32:00,72.9,42.1,30.25,NW,311,4.0,5.0,33,0.00,,,0.00,meteohub,2013-04-26 21:32:00,
2013-04-26 14:37:00,73.2,43.9,30.25,NNW,338,1.0,5.0,35,0.00,,,0.00,meteohub,2013-04-26 21:37:00,
2013-04-26 14:42:00,73.2,40.8,30.25,WNW,301,2.0,5.0,31,0.00,,,0.00,meteohub,2013-04-26 21:42:00,
2013-04-26 14:47:00,73.2,41.5,30.25,WNW,296,3.0,8.0,32,0.00,,,0.00,meteohub,2013-04-26 21:47:00,
2013-04-26 14:52:00,73.8,45.1,30.25,NW,310,4.0,8.0,36,0.00,,,0.00,meteohub,2013-04-26 21:52:00,
2013-04-26 14:57:00,73.9,43.9,30.25,NW,324,6.0,8.0,34,0.00,,,0.00,meteohub,2013-04-26 21:57:00,
2013-04-26 15:02:00,73.9,40.5,30.25,NW,305,5.0,8.0,30,0.00,,,0.00,meteohub,2013-04-26 22:02:00,
2013-04-26 15:07:00,73.8,39.6,30.25,WNW,284,0.0,8.0,29,0.00,,,0.00,meteohub,2013-04-26 22:07:00,
2013-04-26 15:12:00,73.8,42.1,30.25,WSW,253,1.0,12.0,32,0.00,,,0.00,meteohub,2013-04-26 22:12:00,
2013-04-26 15:17:00,73.8,40.5,30.25,WSW,251,0.0,12.0,30,0.00,,,0.00,meteohub,2013-04-26 22:17:00,
2013-04-26 15:22:00,73.8,42.8,30.24,West,261,5.0,12.0,33,0.00,,,0.00,meteohub,2013-04-26 22:22:00,
2013-04-26 15:27:00,73.6,40.3,30.24,NW,311,5.0,6.0,30,0.00,,,0.00,meteohub,2013-04-26 22:27:00,
2013-04-26 15:32:00,73.9,41.4,30.24,North,355,0.0,6.0,31,0.00,,,0.00,meteohub,2013-04-26 22:32:00,
2013-04-26 15:37:00,73.6,40.3,30.24,West,271,0.0,9.0,30,0.00,,,0.00,meteohub,2013-04-26 22:37:00,
2013-04-26 15:42:00,73.2,40.8,30.24,WSW,242,1.0,7.0,31,0.00,,,0.00,meteohub,2013-04-26 22:42:00,
2013-04-26 15:47:00,72.9,39.6,30.24,SSW,213,3.0,7.0,30,0.00,,,0.00,meteohub,2013-04-26 22:47:00,
2013-04-26 15:52:00,72.3,41.5,30.23,West,265,5.0,7.0,33,0.00,,,0.00,meteohub,2013-04-26 22:52:00,
2013-04-26 15:57:00,72.1,39.9,30.23,WNW,302,5.0,7.0,31,0.00,,,0.00,meteohub,2013-04-26 22:57:00,
2013-04-26 16:02:00,72.3,41.5,30.23,NW,309,3.0,7.0,33,0.00,,,0.00,meteohub,2013-04-26 23:02:00,
2013-04-26 16:07:00,72.7,43.5,30.23,NW,321,2.0,7.0,35,0.00,,,0.00,meteohub,2013-04-26 23:07:00,
2013-04-26 16:12:00,73.2,44.6,30.23,NNW,330,2.0,7.0,36,0.00,,,0.00,meteohub,2013-04-26 23:12:00,
2013-04-26 16:17:00,73.8,44.4,30.23,WNW,297,0.0,6.0,35,0.00,,,0.00,meteohub,2013-04-26 23:17:00,
2013-04-26 16:22:00,73.9,41.4,30.23,NW,304,0.0,7.0,31,0.00,,,0.00,meteohub,2013-04-26 23:22:00,
2013-04-26 16:27:00,74.1,44.8,30.22,NNW,332,0.0,7.0,35,0.00,,,0.00,meteohub,2013-04-26 23:27:00,
2013-04-26 16:32:00,74.5,41.9,30.22,WNW,282,0.0,7.0,31,0.00,,,0.00,meteohub,2013-04-26 23:32:00,
2013-04-26 16:37:00,73.8,38.7,30.22,West,269,6.0,6.0,28,0.00,,,0.00,meteohub,2013-04-26 23:37:00,
2013-04-26 16:42:00,73.0,40.6,30.22,WNW,284,2.0,9.0,31,0.00,,,0.00,meteohub,2013-04-26 23:42:00,
2013-04-26 16:47:00,73.0,39.7,30.22,NW,305,0.0,9.0,30,0.00,,,0.00,meteohub,2013-04-26 23:47:00,
2013-04-26 16:52:00,72.9,39.6,30.22,WNW,300,0.0,9.0,30,0.00,,,0.00,meteohub,2013-04-26 23:52:00,
2013-04-26 16:54:00,72.7,37.8,30.22,NW,315,2.0,9.0,28,0.00,,,0.00,meteohub,2013-04-26 23:54:00,
2013-04-26 17:06:00,72.1,40.6,30.22,West,273,0.0,6.0,32,0.00,,,0.00,meteohub,2013-04-27 00:06:00,
2013-04-26 17:10:00,72.0,40.5,30.22,West,273,2.0,6.0,32,0.00,,,0.00,meteohub,2013-04-27 00:10:00,
2013-04-26 17:15:00,72.0,40.5,30.21,West,275,0.0,5.0,32,0.00,,,0.00,meteohub,2013-04-27 00:15:00,
2013-04-26 17:21:00,72.1,39.9,30.21,WNW,292,3.0,5.0,31,0.00,,,0.00,meteohub,2013-04-27 00:21:00,
2013-04-26 17:26:00,72.1,39.9,30.21,SW,225,0.0,6.0,31,0.00,,,0.00,meteohub,2013-04-27 00:26:00,
2013-04-26 17:31:00,72.1,41.4,30.21,West,279,2.0,6.0,33,0.00,,,0.00,meteohub,2013-04-27 00:31:00,
2013-04-26 17:36:00,72.0,38.8,30.21,NW,323,0.0,7.0,30,0.00,,,0.00,meteohub,2013-04-27 00:36:00,
2013-04-26 17:41:00,72.0,39.7,30.21,NW,322,0.0,7.0,31,0.00,,,0.00,meteohub,2013-04-27 00:41:00,
2013-04-26 17:46:00,71.6,39.4,30.21,West,267,0.0,7.0,31,0.00,,,0.00,meteohub,2013-04-27 00:46:00,
2013-04-26 17:51:00,71.2,39.0,30.21,WSW,254,3.0,7.0,31,0.00,,,0.00,meteohub,2013-04-27 00:51:00,
2013-04-26 17:56:00,71.2,37.4,30.21,WSW,252,4.0,7.0,29,0.00,,,0.00,meteohub,2013-04-27 00:56:00,
2013-04-26 18:01:00,71.2,36.5,30.21,WNW,300,0.0,7.0,28,0.00,,,0.00,meteohub,2013-04-27 01:01:00,
2013-04-26 18:06:00,71.1,35.4,30.21,NW,319,2.0,7.0,27,0.00,,,0.00,meteohub,2013-04-27 01:06:00,
2013-04-26 18:11:00,71.1,37.2,30.21,SW,229,4.0,7.0,29,0.00,,,0.00,meteohub,2013-04-27 01:11:00,
2013-04-26 18:16:00,70.7,36.0,30.21,SW,228,1.0,8.0,28,0.00,,,0.00,meteohub,2013-04-27 01:16:00,
2013-04-26 18:21:00,70.5,35.8,30.21,WSW,253,0.0,8.0,28,0.00,,,0.00,meteohub,2013-04-27 01:21:00,
2013-04-26 18:26:00,70.3,37.4,30.21,West,263,2.0,7.0,30,0.00,,,0.00,meteohub,2013-04-27 01:26:00,
2013-04-26 18:31:00,70.5,35.8,30.21,West,271,2.0,7.0,28,0.00,,,0.00,meteohub,2013-04-27 01:31:00,
2013-04-26 18:36:00,70.5,34.9,30.20,WNW,284,0.0,6.0,27,0.00,,,0.00,meteohub,2013-04-27 01:36:00,
2013-04-26 18:41:00,70.7,36.9,30.20,West,272,0.0,5.0,29,0.00,,,0.00,meteohub,2013-04-27 01:41:00,
2013-04-26 18:46:00,70.3,35.6,30.20,WNW,288,0.0,7.0,28,0.00,,,0.00,meteohub,2013-04-27 01:46:00,
2013-04-26 18:51:00,70.0,36.3,30.21,WNW,292,0.0,7.0,29,0.00,,,0.00,meteohub,2013-04-27 01:51:00,
2013-04-26 18:56:00,69.4,36.7,30.21,WNW,299,0.0,7.0,30,0.00,,,0.00,meteohub,2013-04-27 01:56:00,
2013-04-26 19:01:00,69.1,39.6,30.21,WNW,299,0.0,6.0,34,0.00,,,0.00,meteohub,2013-04-27 02:01:00,
2013-04-26 19:06:00,68.5,41.2,30.21,WNW,299,0.0,5.0,37,0.00,,,0.00,meteohub,2013-04-27 02:06:00,
2013-04-26 19:11:00,67.8,41.4,30.20,WNW,299,0.0,5.0,38,0.00,,,0.00,meteohub,2013-04-27 02:11:00,
2013-04-26 19:16:00,67.1,41.9,30.21,WNW,299,0.0,1.0,40,0.00,,,0.00,meteohub,2013-04-27 02:16:00,
2013-04-26 19:21:00,66.6,42.1,30.21,WNW,299,0.0,0.0,41,0.00,,,0.00,meteohub,2013-04-27 02:21:00,
2013-04-26 19:26:00,65.8,40.8,30.21,WNW,299,0.0,0.0,40,0.00,,,0.00,meteohub,2013-04-27 02:26:00,
2013-04-26 19:31:00,65.3,42.3,30.22,WNW,299,0.0,0.0,43,0.00,,,0.00,meteohub,2013-04-27 02:31:00,
2013-04-26 19:36:00,64.8,44.6,30.22,WNW,299,0.0,0.0,48,0.00,,,0.00,meteohub,2013-04-27 02:36:00,
2013-04-26 19:41:00,64.0,45.0,30.22,WNW,299,0.0,0.0,50,0.00,,,0.00,meteohub,2013-04-27 02:41:00,
2013-04-26 19:46:00,63.0,44.6,30.22,WNW,299,0.0,0.0,51,0.00,,,0.00,meteohub,2013-04-27 02:46:00,
2013-04-26 19:51:00,61.9,44.1,30.22,WNW,299,0.0,0.0,52,0.00,,,0.00,meteohub,2013-04-27 02:51:00,
2013-04-26 19:56:00,61.0,43.2,30.22,WNW,299,0.0,0.0,52,0.00,,,0.00,meteohub,2013-04-27 02:56:00,
2013-04-26 20:01:00,60.1,43.0,30.22,WNW,299,0.0,0.0,53,0.00,,,0.00,meteohub,2013-04-27 03:01:00,
2013-04-26 20:06:00,59.2,43.5,30.22,WNW,299,0.0,0.0,56,0.00,,,0.00,meteohub,2013-04-27 03:06:00,
2013-04-26 20:11:00,58.1,43.9,30.22,WNW,299,0.0,0.0,59,0.00,,,0.00,meteohub,2013-04-27 03:11:00,
2013-04-26 20:16:00,57.0,44.1,30.22,WNW,299,0.0,0.0,62,0.00,,,0.00,meteohub,2013-04-27 03:16:00,
2013-04-26 20:21:00,56.3,43.5,30.23,WNW,299,0.0,0.0,62,0.00,,,0.00,meteohub,2013-04-27 03:21:00,
2013-04-26 20:26:00,55.6,44.1,30.23,WNW,299,0.0,0.0,65,0.00,,,0.00,meteohub,2013-04-27 03:26:00,
2013-04-26 20:31:00,54.7,43.5,30.22,WNW,299,0.0,0.0,66,0.00,,,0.00,meteohub,2013-04-27 03:31:00,
2013-04-26 20:36:00,54.0,43.3,30.22,WNW,299,0.0,1.0,67,0.00,,,0.00,meteohub,2013-04-27 03:36:00,
2013-04-26 20:41:00,53.4,43.5,30.23,WNW,299,0.0,1.0,69,0.00,,,0.00,meteohub,2013-04-27 03:41:00,
2013-04-26 20:46:00,52.9,43.7,30.23,WNW,299,0.0,0.0,71,0.00,,,0.00,meteohub,2013-04-27 03:46:00,
2013-04-26 20:51:00,52.3,43.9,30.23,WNW,299,0.0,0.0,73,0.00,,,0.00,meteohub,2013-04-27 03:51:00,
2013-04-26 20:56:00,52.0,43.9,30.23,WNW,299,0.0,0.0,74,0.00,,,0.00,meteohub,2013-04-27 03:56:00,
2013-04-26 21:01:00,51.6,44.2,30.23,WNW,299,0.0,0.0,76,0.00,,,0.00,meteohub,2013-04-27 04:01:00,
2013-04-26 21:06:00,51.4,44.8,30.23,WNW,299,0.0,0.0,78,0.00,,,0.00,meteohub,2013-04-27 04:06:00,
2013-04-26 21:11:00,51.3,44.6,30.23,WNW,299,0.0,0.0,78,0.00,,,0.00,meteohub,2013-04-27 04:11:00,
2013-04-26 21:16:00,50.7,44.4,30.23,WNW,299,0.0,0.0,79,0.00,,,0.00,meteohub,2013-04-27 04:16:00,
2013-04-26 21:21:00,50.5,44.2,30.23,WNW,299,0.0,0.0,79,0.00,,,0.00,meteohub,2013-04-27 04:21:00,
2013-04-26 21:26:00,50.2,44.2,30.23,WNW,299,0.0,0.0,80,0.00,,,0.00,meteohub,2013-04-27 04:26:00,
2013-04-26 21:31:00,49.8,43.9,30.23,WNW,299,0.0,0.0,80,0.00,,,0.00,meteohub,2013-04-27 04:31:00,
2013-04-26 21:36:00,49.5,43.9,30.23,WNW,299,0.0,0.0,81,0.00,,,0.00,meteohub,2013-04-27 04:36:00,
2013-04-26 21:41:00,49.3,43.7,30.23,WNW,299,0.0,0.0,81,0.00,,,0.00,meteohub,2013-04-27 04:41:00,
2013-04-26 21:46:00,48.9,43.3,30.23,WNW,299,0.0,0.0,81,0.00,,,0.00,meteohub,2013-04-27 04:46:00,
2013-04-26 21:51:00,48.7,43.2,30.23,WNW,299,0.0,0.0,81,0.00,,,0.00,meteohub,2013-04-27 04:51:00,
2013-04-26 21:56:00,48.6,43.3,30.23,WNW,299,0.0,0.0,82,0.00,,,0.00,meteohub,2013-04-27 04:56:00,
2013-04-26 22:01:00,48.4,42.8,30.23,WNW,299,0.0,0.0,81,0.00,,,0.00,meteohub,2013-04-27 05:01:00,
2013-04-26 22:06:00,48.2,43.0,30.24,WNW,299,0.0,0.0,82,0.00,,,0.00,meteohub,2013-04-27 05:06:00,
2013-04-26 22:11:00,48.0,42.8,30.24,WNW,299,0.0,0.0,82,0.00,,,0.00,meteohub,2013-04-27 05:11:00,
2013-04-26 22:16:00,47.8,42.6,30.24,WNW,299,0.0,0.0,82,0.00,,,0.00,meteohub,2013-04-27 05:16:00,
2013-04-26 22:21:00,47.7,42.4,30.24,WNW,299,0.0,0.0,82,0.00,,,0.00,meteohub,2013-04-27 05:21:00,
2013-04-26 22:26:00,47.5,42.3,30.24,WNW,299,0.0,0.0,82,0.00,,,0.00,meteohub,2013-04-27 05:26:00,
2013-04-26 22:31:00,47.1,41.9,30.24,WNW,299,0.0,0.0,82,0.00,,,0.00,meteohub,2013-04-27 05:31:00,
2013-04-26 22:36:00,46.9,41.7,30.24,WNW,299,0.0,0.0,82,0.00,,,0.00,meteohub,2013-04-27 05:36:00,
2013-04-26 22:41:00,46.8,41.5,30.25,WNW,299,0.0,0.0,82,0.00,,,0.00,meteohub,2013-04-27 05:41:00,
2013-04-26 22:46:00,46.8,41.5,30.25,WNW,299,0.0,1.0,82,0.00,,,0.00,meteohub,2013-04-27 05:46:00,
2013-04-26 22:51:00,46.6,41.4,30.25,WNW,299,0.0,1.0,82,0.00,,,0.00,meteohub,2013-04-27 05:51:00,
2013-04-26 22:56:00,46.4,41.2,30.25,WNW,299,0.0,1.0,82,0.00,,,0.00,meteohub,2013-04-27 05:56:00,
2013-04-26 23:01:00,46.4,40.8,30.25,WNW,299,0.0,1.0,81,0.00,,,0.00,meteohub,2013-04-27 06:01:00,
2013-04-26 23:06:00,46.2,40.6,30.25,WNW,299,0.0,2.0,81,0.00,,,0.00,meteohub,2013-04-27 06:06:00,
2013-04-26 23:11:00,46.2,40.6,30.25,WNW,299,0.0,2.0,81,0.00,,,0.00,meteohub,2013-04-27 06:11:00,
2013-04-26 23:16:00,46.0,40.5,30.25,WNW,299,0.0,1.0,81,0.00,,,0.00,meteohub,2013-04-27 06:16:00,
2013-04-26 23:22:00,46.0,40.5,30.25,WNW,299,0.0,1.0,81,0.00,,,0.00,meteohub,2013-04-27 06:22:00,
2013-04-26 23:27:00,46.0,40.5,30.25,WNW,299,0.0,0.0,81,0.00,,,0.00,meteohub,2013-04-27 06:27:00,
2013-04-26 23:32:00,46.0,40.5,30.25,WNW,299,0.0,0.0,81,0.00,,,0.00,meteohub,2013-04-27 06:32:00,
2013-04-26 23:37:00,46.0,40.5,30.25,WNW,299,0.0,0.0,81,0.00,,,0.00,meteohub,2013-04-27 06:37:00,
2013-04-26 23:42:00,45.9,40.3,30.25,WNW,299,0.0,0.0,81,0.00,,,0.00,meteohub,2013-04-27 06:42:00,
2013-04-26 23:47:00,45.9,40.3,30.25,WNW,299,0.0,0.0,81,0.00,,,0.00,meteohub,2013-04-27 06:47:00,
2013-04-26 23:52:00,45.7,40.1,30.24,WNW,299,0.0,0.0,81,0.00,,,0.00,meteohub,2013-04-27 06:52:00,
2013-04-26 23:57:00,45.3,39.9,30.24,WNW,299,0.0,0.0,81,0.00,,,0.00,meteohub,2013-04-27 06:57:00,